sensor_id;sensor_type;location;lat;lon;timestamp;temperature;humidity
67942;SHT31;54731;42.600;23.476;2023-08-01T00:01:46;18.67;73.08
67942;SHT31;54731;42.600;23.476;2023-08-01T00:04:11;18.67;73.28
67942;SHT31;54731;42.600;23.476;2023-08-01T00:06:36;18.62;72.85
67942;SHT31;54731;42.600;23.476;2023-08-01T00:09:02;18.63;73.13
67942;SHT31;54731;42.600;23.476;2023-08-01T00:11:27;18.56;73.23
67942;SHT31;54731;42.600;23.476;2023-08-01T00:13:52;18.56;73.29
67942;SHT31;54731;42.600;23.476;2023-08-01T00:16:18;18.57;73.31
67942;SHT31;54731;42.600;23.476;2023-08-01T00:18:43;18.51;73.46
67942;SHT31;54731;42.600;23.476;2023-08-01T00:21:08;18.49;73.21
67942;SHT31;54731;42.600;23.476;2023-08-01T00:23:34;18.48;72.92
67942;SHT31;54731;42.600;23.476;2023-08-01T00:26:00;18.53;72.92
67942;SHT31;54731;42.600;23.476;2023-08-01T00:28:25;18.49;72.85
67942;SHT31;54731;42.600;23.476;2023-08-01T00:30:51;18.49;73.17
67942;SHT31;54731;42.600;23.476;2023-08-01T00:33:16;18.46;73.82
67942;SHT31;54731;42.600;23.476;2023-08-01T00:35:41;18.43;73.99
67942;SHT31;54731;42.600;23.476;2023-08-01T00:38:07;18.36;74.49
67942;SHT31;54731;42.600;23.476;2023-08-01T00:40:33;18.38;74.91
67942;SHT31;54731;42.600;23.476;2023-08-01T00:42:58;18.32;75.06
67942;SHT31;54731;42.600;23.476;2023-08-01T00:45:25;18.33;75.09
67942;SHT31;54731;42.600;23.476;2023-08-01T00:47:51;18.26;75.05
67942;SHT31;54731;42.600;23.476;2023-08-01T00:50:18;18.29;74.82
67942;SHT31;54731;42.600;23.476;2023-08-01T00:52:43;18.26;74.94
67942;SHT31;54731;42.600;23.476;2023-08-01T00:55:09;18.33;74.66
67942;SHT31;54731;42.600;23.476;2023-08-01T00:57:34;18.31;75.04
67942;SHT31;54731;42.600;23.476;2023-08-01T00:59:59;18.29;74.31
67942;SHT31;54731;42.600;23.476;2023-08-01T01:02:25;18.33;73.66
67942;SHT31;54731;42.600;23.476;2023-08-01T01:04:50;18.32;73.41
67942;SHT31;54731;42.600;23.476;2023-08-01T01:07:16;18.33;73.25
67942;SHT31;54731;42.600;23.476;2023-08-01T01:09:42;18.38;73.34
67942;SHT31;54731;42.600;23.476;2023-08-01T01:12:07;18.36;73.22
67942;SHT31;54731;42.600;23.476;2023-08-01T01:14:32;18.36;73.45
67942;SHT31;54731;42.600;23.476;2023-08-01T01:16:58;18.33;73.33
67942;SHT31;54731;42.600;23.476;2023-08-01T01:19:23;18.36;73.24
67942;SHT31;54731;42.600;23.476;2023-08-01T01:21:49;18.38;73.15
67942;SHT31;54731;42.600;23.476;2023-08-01T01:24:16;18.36;73.13
67942;SHT31;54731;42.600;23.476;2023-08-01T01:26:41;18.38;72.84
67942;SHT31;54731;42.600;23.476;2023-08-01T01:29:08;18.38;72.74
67942;SHT31;54731;42.600;23.476;2023-08-01T01:31:34;18.38;73.03
67942;SHT31;54731;42.600;23.476;2023-08-01T01:33:59;18.35;72.59
67942;SHT31;54731;42.600;23.476;2023-08-01T01:36:25;18.41;72.38
67942;SHT31;54731;42.600;23.476;2023-08-01T01:38:51;18.42;72.37
67942;SHT31;54731;42.600;23.476;2023-08-01T01:41:16;18.48;72.84
67942;SHT31;54731;42.600;23.476;2023-08-01T01:43:41;18.46;72.76
67942;SHT31;54731;42.600;23.476;2023-08-01T01:46:07;18.45;72.38
67942;SHT31;54731;42.600;23.476;2023-08-01T01:48:32;18.43;72.18
67942;SHT31;54731;42.600;23.476;2023-08-01T01:50:57;18.43;71.89
67942;SHT31;54731;42.600;23.476;2023-08-01T01:53:23;18.38;71.71
67942;SHT31;54731;42.600;23.476;2023-08-01T01:55:48;18.42;71.84
67942;SHT31;54731;42.600;23.476;2023-08-01T01:58:13;18.41;71.21
67942;SHT31;54731;42.600;23.476;2023-08-01T02:00:38;18.42;71.55
67942;SHT31;54731;42.600;23.476;2023-08-01T02:03:04;18.43;71.78
67942;SHT31;54731;42.600;23.476;2023-08-01T02:05:30;18.41;71.87
67942;SHT31;54731;42.600;23.476;2023-08-01T02:07:55;18.42;72.08
67942;SHT31;54731;42.600;23.476;2023-08-01T02:10:20;18.42;73.31
67942;SHT31;54731;42.600;23.476;2023-08-01T02:12:46;18.35;74.48
67942;SHT31;54731;42.600;23.476;2023-08-01T02:15:11;18.38;74.74
67942;SHT31;54731;42.600;23.476;2023-08-01T02:17:36;18.38;74.43
67942;SHT31;54731;42.600;23.476;2023-08-01T02:20:02;18.39;74.25
67942;SHT31;54731;42.600;23.476;2023-08-01T02:22:27;18.36;74.54
67942;SHT31;54731;42.600;23.476;2023-08-01T02:24:52;18.35;73.37
67942;SHT31;54731;42.600;23.476;2023-08-01T02:27:17;18.32;73.58
67942;SHT31;54731;42.600;23.476;2023-08-01T02:29:43;18.32;74.12
67942;SHT31;54731;42.600;23.476;2023-08-01T02:32:08;18.31;74.54
67942;SHT31;54731;42.600;23.476;2023-08-01T02:34:33;18.28;74.23
67942;SHT31;54731;42.600;23.476;2023-08-01T02:36:59;18.26;72.82
67942;SHT31;54731;42.600;23.476;2023-08-01T02:39:24;18.28;72.09
67942;SHT31;54731;42.600;23.476;2023-08-01T02:41:49;18.24;72.16
67942;SHT31;54731;42.600;23.476;2023-08-01T02:44:15;18.18;72.57
67942;SHT31;54731;42.600;23.476;2023-08-01T02:46:40;18.18;72.37
67942;SHT31;54731;42.600;23.476;2023-08-01T02:49:06;18.15;71.61
67942;SHT31;54731;42.600;23.476;2023-08-01T02:51:31;18.13;71.47
67942;SHT31;54731;42.600;23.476;2023-08-01T02:53:56;18.06;71.15
67942;SHT31;54731;42.600;23.476;2023-08-01T02:56:21;18.04;71.36
67942;SHT31;54731;42.600;23.476;2023-08-01T02:58:47;18.00;71.34
67942;SHT31;54731;42.600;23.476;2023-08-01T03:01:12;17.74;72.55
67942;SHT31;54731;42.600;23.476;2023-08-01T03:03:37;17.71;73.15
67942;SHT31;54731;42.600;23.476;2023-08-01T03:06:03;17.73;73.53
67942;SHT31;54731;42.600;23.476;2023-08-01T03:08:28;17.67;73.80
67942;SHT31;54731;42.600;23.476;2023-08-01T03:10:54;17.71;73.34
67942;SHT31;54731;42.600;23.476;2023-08-01T03:13:19;17.63;73.31
67942;SHT31;54731;42.600;23.476;2023-08-01T03:15:45;17.57;73.03
67942;SHT31;54731;42.600;23.476;2023-08-01T03:18:10;17.54;72.84
67942;SHT31;54731;42.600;23.476;2023-08-01T03:20:35;17.55;72.80
67942;SHT31;54731;42.600;23.476;2023-08-01T03:23:00;17.54;72.65
67942;SHT31;54731;42.600;23.476;2023-08-01T03:25:26;17.47;71.90
67942;SHT31;54731;42.600;23.476;2023-08-01T03:27:51;17.46;72.18
67942;SHT31;54731;42.600;23.476;2023-08-01T03:30:16;17.34;72.36
67942;SHT31;54731;42.600;23.476;2023-08-01T03:32:42;17.31;74.68
67942;SHT31;54731;42.600;23.476;2023-08-01T03:35:07;17.30;76.37
67942;SHT31;54731;42.600;23.476;2023-08-01T03:37:32;17.24;76.39
67942;SHT31;54731;42.600;23.476;2023-08-01T03:39:58;17.15;76.72
67942;SHT31;54731;42.600;23.476;2023-08-01T03:42:23;17.03;76.87
67942;SHT31;54731;42.600;23.476;2023-08-01T03:44:48;17.07;76.67
67942;SHT31;54731;42.600;23.476;2023-08-01T03:47:14;17.07;77.01
67942;SHT31;54731;42.600;23.476;2023-08-01T03:49:39;17.05;77.06
67942;SHT31;54731;42.600;23.476;2023-08-01T03:52:05;16.99;76.67
67942;SHT31;54731;42.600;23.476;2023-08-01T03:54:31;16.96;77.18
67942;SHT31;54731;42.600;23.476;2023-08-01T03:56:56;16.99;77.26
67942;SHT31;54731;42.600;23.476;2023-08-01T03:59:21;16.99;76.60
67942;SHT31;54731;42.600;23.476;2023-08-01T04:01:47;16.90;76.19
67942;SHT31;54731;42.600;23.476;2023-08-01T04:04:12;16.89;76.19
67942;SHT31;54731;42.600;23.476;2023-08-01T04:06:37;16.80;76.98
67942;SHT31;54731;42.600;23.476;2023-08-01T04:09:03;16.80;77.73
67942;SHT31;54731;42.600;23.476;2023-08-01T04:11:28;16.86;76.62
67942;SHT31;54731;42.600;23.476;2023-08-01T04:13:53;16.86;76.87
67942;SHT31;54731;42.600;23.476;2023-08-01T04:16:19;16.80;76.65
67942;SHT31;54731;42.600;23.476;2023-08-01T04:18:44;16.83;76.60
67942;SHT31;54731;42.600;23.476;2023-08-01T04:21:12;16.89;76.81
67942;SHT31;54731;42.600;23.476;2023-08-01T04:23:38;16.90;76.84
67942;SHT31;54731;42.600;23.476;2023-08-01T04:26:03;16.95;77.39
67942;SHT31;54731;42.600;23.476;2023-08-01T04:28:28;16.97;77.18
67942;SHT31;54731;42.600;23.476;2023-08-01T04:30:53;17.00;76.82
67942;SHT31;54731;42.600;23.476;2023-08-01T04:33:19;16.97;77.00
67942;SHT31;54731;42.600;23.476;2023-08-01T04:35:44;17.03;77.16
67942;SHT31;54731;42.600;23.476;2023-08-01T04:38:09;17.05;77.11
67942;SHT31;54731;42.600;23.476;2023-08-01T04:40:35;17.12;77.64
67942;SHT31;54731;42.600;23.476;2023-08-01T04:43:03;17.15;77.82
67942;SHT31;54731;42.600;23.476;2023-08-01T04:45:28;17.15;77.79
67942;SHT31;54731;42.600;23.476;2023-08-01T04:47:53;17.16;77.36
67942;SHT31;54731;42.600;23.476;2023-08-01T04:50:19;17.23;76.94
67942;SHT31;54731;42.600;23.476;2023-08-01T04:52:44;17.28;76.92
67942;SHT31;54731;42.600;23.476;2023-08-01T04:55:09;17.34;77.19
67942;SHT31;54731;42.600;23.476;2023-08-01T04:57:35;17.37;77.27
67942;SHT31;54731;42.600;23.476;2023-08-01T05:00:00;17.37;76.37
67942;SHT31;54731;42.600;23.476;2023-08-01T05:02:26;17.44;76.42
67942;SHT31;54731;42.600;23.476;2023-08-01T05:04:51;17.50;75.18
67942;SHT31;54731;42.600;23.476;2023-08-01T05:07:16;17.60;75.44
67942;SHT31;54731;42.600;23.476;2023-08-01T05:09:42;17.67;75.82
67942;SHT31;54731;42.600;23.476;2023-08-01T05:12:07;17.74;74.92
67942;SHT31;54731;42.600;23.476;2023-08-01T05:14:32;17.80;74.22
67942;SHT31;54731;42.600;23.476;2023-08-01T05:16:58;17.80;74.47
67942;SHT31;54731;42.600;23.476;2023-08-01T05:19:23;17.90;73.72
67942;SHT31;54731;42.600;23.476;2023-08-01T05:21:48;18.00;74.95
67942;SHT31;54731;42.600;23.476;2023-08-01T05:24:13;18.04;74.80
67942;SHT31;54731;42.600;23.476;2023-08-01T05:26:39;18.06;75.12
67942;SHT31;54731;42.600;23.476;2023-08-01T05:29:04;18.18;74.89
67942;SHT31;54731;42.600;23.476;2023-08-01T05:31:29;18.25;74.47
67942;SHT31;54731;42.600;23.476;2023-08-01T05:33:55;18.36;73.27
67942;SHT31;54731;42.600;23.476;2023-08-01T05:38:56;18.53;73.01
67942;SHT31;54731;42.600;23.476;2023-08-01T05:41:21;18.57;73.14
67942;SHT31;54731;42.600;23.476;2023-08-01T05:43:48;18.69;71.67
67942;SHT31;54731;42.600;23.476;2023-08-01T05:46:13;18.74;70.99
67942;SHT31;54731;42.600;23.476;2023-08-01T05:48:39;18.82;71.10
67942;SHT31;54731;42.600;23.476;2023-08-01T05:51:04;18.90;71.93
67942;SHT31;54731;42.600;23.476;2023-08-01T05:53:29;18.99;72.76
67942;SHT31;54731;42.600;23.476;2023-08-01T05:55:55;19.00;72.92
67942;SHT31;54731;42.600;23.476;2023-08-01T05:58:20;19.10;72.22
67942;SHT31;54731;42.600;23.476;2023-08-01T06:00:45;19.20;72.02
67942;SHT31;54731;42.600;23.476;2023-08-01T06:03:11;19.27;71.08
67942;SHT31;54731;42.600;23.476;2023-08-01T06:05:36;19.26;69.34
67942;SHT31;54731;42.600;23.476;2023-08-01T06:08:01;19.28;70.32
67942;SHT31;54731;42.600;23.476;2023-08-01T06:10:27;19.35;69.91
67942;SHT31;54731;42.600;23.476;2023-08-01T06:12:52;19.38;70.64
67942;SHT31;54731;42.600;23.476;2023-08-01T06:15:17;19.41;70.65
67942;SHT31;54731;42.600;23.476;2023-08-01T06:17:42;19.53;71.23
67942;SHT31;54731;42.600;23.476;2023-08-01T06:20:08;19.61;70.48
67942;SHT31;54731;42.600;23.476;2023-08-01T06:22:34;19.67;71.07
67942;SHT31;54731;42.600;23.476;2023-08-01T06:24:59;19.67;69.85
67942;SHT31;54731;42.600;23.476;2023-08-01T06:27:24;19.68;71.03
67942;SHT31;54731;42.600;23.476;2023-08-01T06:29:50;19.75;70.79
67942;SHT31;54731;42.600;23.476;2023-08-01T06:32:15;19.82;69.75
67942;SHT31;54731;42.600;23.476;2023-08-01T06:34:40;19.89;69.53
67942;SHT31;54731;42.600;23.476;2023-08-01T06:37:06;19.98;68.60
67942;SHT31;54731;42.600;23.476;2023-08-01T06:39:31;20.04;68.61
67942;SHT31;54731;42.600;23.476;2023-08-01T06:41:56;20.08;68.01
67942;SHT31;54731;42.600;23.476;2023-08-01T06:44:22;20.05;67.85
67942;SHT31;54731;42.600;23.476;2023-08-01T06:46:47;20.04;68.67
67942;SHT31;54731;42.600;23.476;2023-08-01T06:49:12;20.08;68.60
67942;SHT31;54731;42.600;23.476;2023-08-01T06:51:38;20.05;68.19
67942;SHT31;54731;42.600;23.476;2023-08-01T06:54:03;20.15;68.85
67942;SHT31;54731;42.600;23.476;2023-08-01T06:56:28;20.19;69.47
67942;SHT31;54731;42.600;23.476;2023-08-01T06:58:53;20.18;69.91
67942;SHT31;54731;42.600;23.476;2023-08-01T07:01:19;20.20;69.14
67942;SHT31;54731;42.600;23.476;2023-08-01T07:03:44;20.23;69.75
67942;SHT31;54731;42.600;23.476;2023-08-01T07:06:09;20.13;69.01
67942;SHT31;54731;42.600;23.476;2023-08-01T07:08:35;20.18;69.20
67942;SHT31;54731;42.600;23.476;2023-08-01T07:11:00;20.26;69.95
67942;SHT31;54731;42.600;23.476;2023-08-01T07:13:25;20.36;69.59
67942;SHT31;54731;42.600;23.476;2023-08-01T07:15:51;20.40;69.27
67942;SHT31;54731;42.600;23.476;2023-08-01T07:18:16;20.37;68.52
67942;SHT31;54731;42.600;23.476;2023-08-01T07:20:41;20.36;68.53
67942;SHT31;54731;42.600;23.476;2023-08-01T07:23:07;20.40;69.03
67942;SHT31;54731;42.600;23.476;2023-08-01T07:25:32;20.46;69.63
67942;SHT31;54731;42.600;23.476;2023-08-01T07:27:57;20.49;68.44
67942;SHT31;54731;42.600;23.476;2023-08-01T07:30:23;20.53;68.02
67942;SHT31;54731;42.600;23.476;2023-08-01T07:32:48;20.59;68.56
67942;SHT31;54731;42.600;23.476;2023-08-01T07:35:13;20.60;67.96
67942;SHT31;54731;42.600;23.476;2023-08-01T07:37:39;20.70;67.21
67942;SHT31;54731;42.600;23.476;2023-08-01T07:40:08;20.77;67.83
67942;SHT31;54731;42.600;23.476;2023-08-01T07:42:33;20.83;67.07
67942;SHT31;54731;42.600;23.476;2023-08-01T07:44:58;20.88;65.69
67942;SHT31;54731;42.600;23.476;2023-08-01T07:47:24;20.91;65.06
67942;SHT31;54731;42.600;23.476;2023-08-01T07:49:50;20.90;65.16
67942;SHT31;54731;42.600;23.476;2023-08-01T07:52:15;20.95;64.00
67942;SHT31;54731;42.600;23.476;2023-08-01T07:54:41;20.94;65.19
67942;SHT31;54731;42.600;23.476;2023-08-01T07:57:06;20.98;64.80
67942;SHT31;54731;42.600;23.476;2023-08-01T07:59:31;21.04;64.01
67942;SHT31;54731;42.600;23.476;2023-08-01T08:01:56;21.05;63.53
67942;SHT31;54731;42.600;23.476;2023-08-01T08:04:22;21.07;63.85
67942;SHT31;54731;42.600;23.476;2023-08-01T08:06:47;21.12;63.19
67942;SHT31;54731;42.600;23.476;2023-08-01T08:09:13;21.20;62.91
67942;SHT31;54731;42.600;23.476;2023-08-01T08:11:38;21.30;61.84
67942;SHT31;54731;42.600;23.476;2023-08-01T08:14:03;21.37;61.68
67942;SHT31;54731;42.600;23.476;2023-08-01T08:16:29;21.38;60.03
67942;SHT31;54731;42.600;23.476;2023-08-01T08:18:54;21.45;61.14
67942;SHT31;54731;42.600;23.476;2023-08-01T08:21:20;21.48;60.21
67942;SHT31;54731;42.600;23.476;2023-08-01T08:23:45;21.49;59.42
67942;SHT31;54731;42.600;23.476;2023-08-01T08:26:10;21.55;60.76
67942;SHT31;54731;42.600;23.476;2023-08-01T08:28:36;21.63;61.01
67942;SHT31;54731;42.600;23.476;2023-08-01T08:31:02;21.72;60.93
67942;SHT31;54731;42.600;23.476;2023-08-01T08:33:29;21.79;60.50
67942;SHT31;54731;42.600;23.476;2023-08-01T08:35:54;21.90;61.64
67942;SHT31;54731;42.600;23.476;2023-08-01T08:38:20;22.02;61.23
67942;SHT31;54731;42.600;23.476;2023-08-01T08:43:20;22.16;59.50
67942;SHT31;54731;42.600;23.476;2023-08-01T08:45:48;22.14;59.78
67942;SHT31;54731;42.600;23.476;2023-08-01T08:48:18;22.20;59.19
67942;SHT31;54731;42.600;23.476;2023-08-01T08:50:45;22.28;58.59
67942;SHT31;54731;42.600;23.476;2023-08-01T08:53:11;22.33;58.35
67942;SHT31;54731;42.600;23.476;2023-08-01T08:55:36;22.36;59.64
67942;SHT31;54731;42.600;23.476;2023-08-01T08:58:02;22.49;59.48
67942;SHT31;54731;42.600;23.476;2023-08-01T09:00:28;22.54;58.16
67942;SHT31;54731;42.600;23.476;2023-08-01T09:02:54;22.53;57.58
67942;SHT31;54731;42.600;23.476;2023-08-01T09:05:21;22.53;58.17
67942;SHT31;54731;42.600;23.476;2023-08-01T09:07:50;22.61;59.31
67942;SHT31;54731;42.600;23.476;2023-08-01T09:10:16;22.68;58.89
67942;SHT31;54731;42.600;23.476;2023-08-01T09:12:41;22.74;57.03
67942;SHT31;54731;42.600;23.476;2023-08-01T09:15:07;22.78;58.65
67942;SHT31;54731;42.600;23.476;2023-08-01T09:17:33;22.94;58.14
67942;SHT31;54731;42.600;23.476;2023-08-01T09:20:05;23.01;58.20
67942;SHT31;54731;42.600;23.476;2023-08-01T09:22:42;23.12;59.24
67942;SHT31;54731;42.600;23.476;2023-08-01T09:25:07;23.25;60.15
67942;SHT31;54731;42.600;23.476;2023-08-01T09:27:33;23.32;58.10
67942;SHT31;54731;42.600;23.476;2023-08-01T09:30:13;23.39;56.24
67942;SHT31;54731;42.600;23.476;2023-08-01T09:32:39;23.42;58.46
67942;SHT31;54731;42.600;23.476;2023-08-01T09:35:05;23.49;57.73
67942;SHT31;54731;42.600;23.476;2023-08-01T09:37:41;23.59;55.61
67942;SHT31;54731;42.600;23.476;2023-08-01T09:40:08;23.61;55.67
67942;SHT31;54731;42.600;23.476;2023-08-01T09:42:41;23.69;56.16
67942;SHT31;54731;42.600;23.476;2023-08-01T09:45:17;23.72;56.77
67942;SHT31;54731;42.600;23.476;2023-08-01T09:47:44;23.92;55.63
67942;SHT31;54731;42.600;23.476;2023-08-01T09:50:10;24.06;56.47
67942;SHT31;54731;42.600;23.476;2023-08-01T09:52:36;24.12;55.52
67942;SHT31;54731;42.600;23.476;2023-08-01T09:55:01;24.09;55.31
67942;SHT31;54731;42.600;23.476;2023-08-01T09:57:29;24.17;55.76
67942;SHT31;54731;42.600;23.476;2023-08-01T09:59:58;24.24;54.61
67942;SHT31;54731;42.600;23.476;2023-08-01T10:02:25;24.36;54.25
67942;SHT31;54731;42.600;23.476;2023-08-01T10:04:52;24.49;55.50
67942;SHT31;54731;42.600;23.476;2023-08-01T10:07:26;24.54;53.72
67942;SHT31;54731;42.600;23.476;2023-08-01T10:09:58;24.60;54.47
67942;SHT31;54731;42.600;23.476;2023-08-01T10:12:25;24.60;52.95
67942;SHT31;54731;42.600;23.476;2023-08-01T10:14:52;24.74;52.51
67942;SHT31;54731;42.600;23.476;2023-08-01T10:17:18;24.87;52.47
67942;SHT31;54731;42.600;23.476;2023-08-01T10:19:44;25.04;52.33
67942;SHT31;54731;42.600;23.476;2023-08-01T10:22:11;25.12;51.44
67942;SHT31;54731;42.600;23.476;2023-08-01T10:24:37;25.19;51.62
67942;SHT31;54731;42.600;23.476;2023-08-01T10:27:13;25.31;52.33
67942;SHT31;54731;42.600;23.476;2023-08-01T10:29:39;25.31;50.87
67942;SHT31;54731;42.600;23.476;2023-08-01T10:32:07;25.49;53.33
67942;SHT31;54731;42.600;23.476;2023-08-01T10:34:32;25.63;50.91
67942;SHT31;54731;42.600;23.476;2023-08-01T10:36:58;25.69;50.97
67942;SHT31;54731;42.600;23.476;2023-08-01T10:39:25;25.85;51.22
67942;SHT31;54731;42.600;23.476;2023-08-01T10:44:23;26.13;49.73
67942;SHT31;54731;42.600;23.476;2023-08-01T10:46:56;26.20;49.45
67942;SHT31;54731;42.600;23.476;2023-08-01T10:49:39;26.28;49.23
67942;SHT31;54731;42.600;23.476;2023-08-01T10:54:44;26.48;48.61
67942;SHT31;54731;42.600;23.476;2023-08-01T10:57:15;26.67;47.77
67942;SHT31;54731;42.600;23.476;2023-08-01T10:59:41;26.68;46.94
67942;SHT31;54731;42.600;23.476;2023-08-01T11:02:07;26.84;48.04
67942;SHT31;54731;42.600;23.476;2023-08-01T11:04:32;27.02;48.65
67942;SHT31;54731;42.600;23.476;2023-08-01T11:06:58;27.06;46.67
67942;SHT31;54731;42.600;23.476;2023-08-01T11:09:25;27.18;47.66
67942;SHT31;54731;42.600;23.476;2023-08-01T11:11:55;27.22;45.41
67942;SHT31;54731;42.600;23.476;2023-08-01T11:14:22;27.33;46.58
67942;SHT31;54731;42.600;23.476;2023-08-01T11:16:49;27.54;46.29
67942;SHT31;54731;42.600;23.476;2023-08-01T11:19:26;27.83;46.88
67942;SHT31;54731;42.600;23.476;2023-08-01T11:21:52;28.10;45.80
67942;SHT31;54731;42.600;23.476;2023-08-01T11:24:19;28.28;43.21
67942;SHT31;54731;42.600;23.476;2023-08-01T11:26:47;28.45;44.36
67942;SHT31;54731;42.600;23.476;2023-08-01T11:29:13;28.79;42.88
67942;SHT31;54731;42.600;23.476;2023-08-01T11:31:39;28.89;42.82
67942;SHT31;54731;42.600;23.476;2023-08-01T11:34:05;29.18;44.27
67942;SHT31;54731;42.600;23.476;2023-08-01T11:36:30;29.54;41.66
67942;SHT31;54731;42.600;23.476;2023-08-01T11:38:58;30.08;41.76
67942;SHT31;54731;42.600;23.476;2023-08-01T11:41:24;30.58;39.52
67942;SHT31;54731;42.600;23.476;2023-08-01T11:43:50;30.85;38.06
67942;SHT31;54731;42.600;23.476;2023-08-01T11:46:16;31.08;38.13
67942;SHT31;54731;42.600;23.476;2023-08-01T11:48:45;31.46;37.27
67942;SHT31;54731;42.600;23.476;2023-08-01T11:51:10;31.74;35.42
67942;SHT31;54731;42.600;23.476;2023-08-01T11:53:36;31.94;36.04
67942;SHT31;54731;42.600;23.476;2023-08-01T11:56:01;32.23;36.99
67942;SHT31;54731;42.600;23.476;2023-08-01T11:58:31;32.56;34.88
67942;SHT31;54731;42.600;23.476;2023-08-01T12:01:05;32.79;35.70
67942;SHT31;54731;42.600;23.476;2023-08-01T12:03:53;33.03;34.54
67942;SHT31;54731;42.600;23.476;2023-08-01T12:06:18;32.00;35.53
67942;SHT31;54731;42.600;23.476;2023-08-01T12:08:46;32.48;35.83
67942;SHT31;54731;42.600;23.476;2023-08-01T12:11:26;33.36;34.91
67942;SHT31;54731;42.600;23.476;2023-08-01T12:14:14;33.46;33.77
67942;SHT31;54731;42.600;23.476;2023-08-01T12:16:46;33.64;34.41
67942;SHT31;54731;42.600;23.476;2023-08-01T12:19:17;34.22;32.82
67942;SHT31;54731;42.600;23.476;2023-08-01T12:21:44;34.02;32.25
67942;SHT31;54731;42.600;23.476;2023-08-01T12:24:09;33.66;33.53
67942;SHT31;54731;42.600;23.476;2023-08-01T12:26:34;33.97;32.80
67942;SHT31;54731;42.600;23.476;2023-08-01T12:29:00;34.58;34.39
67942;SHT31;54731;42.600;23.476;2023-08-01T12:31:25;34.91;31.36
67942;SHT31;54731;42.600;23.476;2023-08-01T12:33:50;35.12;32.00
67942;SHT31;54731;42.600;23.476;2023-08-01T12:36:16;35.07;31.48
67942;SHT31;54731;42.600;23.476;2023-08-01T12:38:41;35.36;29.94
67942;SHT31;54731;42.600;23.476;2023-08-01T12:41:07;35.61;32.58
67942;SHT31;54731;42.600;23.476;2023-08-01T12:43:33;36.32;30.32
67942;SHT31;54731;42.600;23.476;2023-08-01T12:45:58;36.18;29.22
67942;SHT31;54731;42.600;23.476;2023-08-01T12:48:27;36.52;28.63
67942;SHT31;54731;42.600;23.476;2023-08-01T12:50:53;36.37;29.24
67942;SHT31;54731;42.600;23.476;2023-08-01T12:53:19;36.67;29.30
67942;SHT31;54731;42.600;23.476;2023-08-01T12:55:45;37.02;28.93
67942;SHT31;54731;42.600;23.476;2023-08-01T12:58:11;37.54;28.62
67942;SHT31;54731;42.600;23.476;2023-08-01T13:00:37;37.69;28.58
67942;SHT31;54731;42.600;23.476;2023-08-01T13:03:02;37.52;27.09
67942;SHT31;54731;42.600;23.476;2023-08-01T13:05:28;37.42;28.47
67942;SHT31;54731;42.600;23.476;2023-08-01T13:07:53;37.93;28.29
67942;SHT31;54731;42.600;23.476;2023-08-01T13:10:18;38.05;26.74
67942;SHT31;54731;42.600;23.476;2023-08-01T13:12:44;38.38;27.01
67942;SHT31;54731;42.600;23.476;2023-08-01T13:15:09;37.95;26.20
67942;SHT31;54731;42.600;23.476;2023-08-01T13:17:34;38.17;27.34
67942;SHT31;54731;42.600;23.476;2023-08-01T13:20:00;38.24;26.83
67942;SHT31;54731;42.600;23.476;2023-08-01T13:22:25;37.78;26.66
67942;SHT31;54731;42.600;23.476;2023-08-01T13:24:50;36.89;27.74
67942;SHT31;54731;42.600;23.476;2023-08-01T13:27:16;37.19;26.66
67942;SHT31;54731;42.600;23.476;2023-08-01T13:29:41;36.53;27.90
67942;SHT31;54731;42.600;23.476;2023-08-01T13:32:07;36.93;28.01
67942;SHT31;54731;42.600;23.476;2023-08-01T13:34:32;37.64;27.73
67942;SHT31;54731;42.600;23.476;2023-08-01T13:36:57;37.13;25.79
67942;SHT31;54731;42.600;23.476;2023-08-01T13:39:23;37.54;26.77
67942;SHT31;54731;42.600;23.476;2023-08-01T13:41:48;37.76;27.38
67942;SHT31;54731;42.600;23.476;2023-08-01T13:44:13;37.90;27.56
67942;SHT31;54731;42.600;23.476;2023-08-01T13:46:39;37.76;26.08
67942;SHT31;54731;42.600;23.476;2023-08-01T13:49:04;37.53;27.06
67942;SHT31;54731;42.600;23.476;2023-08-01T13:51:34;37.33;26.45
67942;SHT31;54731;42.600;23.476;2023-08-01T13:54:00;37.57;27.62
67942;SHT31;54731;42.600;23.476;2023-08-01T13:56:25;37.60;26.55
67942;SHT31;54731;42.600;23.476;2023-08-01T13:58:51;37.34;26.67
67942;SHT31;54731;42.600;23.476;2023-08-01T14:01:17;36.53;26.98
67942;SHT31;54731;42.600;23.476;2023-08-01T14:03:42;36.39;27.55
67942;SHT31;54731;42.600;23.476;2023-08-01T14:06:09;36.71;26.97
67942;SHT31;54731;42.600;23.476;2023-08-01T14:08:34;36.71;27.17
67942;SHT31;54731;42.600;23.476;2023-08-01T14:11:04;36.27;27.42
67942;SHT31;54731;42.600;23.476;2023-08-01T14:13:29;35.93;27.60
67942;SHT31;54731;42.600;23.476;2023-08-01T14:15:55;36.62;28.52
67942;SHT31;54731;42.600;23.476;2023-08-01T14:18:20;37.29;27.85
67942;SHT31;54731;42.600;23.476;2023-08-01T14:20:45;37.76;27.08
67942;SHT31;54731;42.600;23.476;2023-08-01T14:23:11;37.87;24.11
67942;SHT31;54731;42.600;23.476;2023-08-01T14:25:36;37.46;25.90
67942;SHT31;54731;42.600;23.476;2023-08-01T14:28:02;37.44;26.82
67942;SHT31;54731;42.600;23.476;2023-08-01T14:30:27;37.02;25.20
67942;SHT31;54731;42.600;23.476;2023-08-01T14:33:03;36.93;27.36
67942;SHT31;54731;42.600;23.476;2023-08-01T14:35:29;37.16;26.71
67942;SHT31;54731;42.600;23.476;2023-08-01T14:37:55;37.59;27.02
67942;SHT31;54731;42.600;23.476;2023-08-01T14:40:24;37.77;26.34
67942;SHT31;54731;42.600;23.476;2023-08-01T14:42:49;37.91;25.13
67942;SHT31;54731;42.600;23.476;2023-08-01T14:45:15;38.42;26.24
67942;SHT31;54731;42.600;23.476;2023-08-01T14:47:41;38.64;24.58
67942;SHT31;54731;42.600;23.476;2023-08-01T14:50:06;38.78;25.42
67942;SHT31;54731;42.600;23.476;2023-08-01T14:52:32;38.08;24.76
67942;SHT31;54731;42.600;23.476;2023-08-01T14:54:57;38.44;26.01
67942;SHT31;54731;42.600;23.476;2023-08-01T14:57:23;38.83;25.04
67942;SHT31;54731;42.600;23.476;2023-08-01T14:59:48;39.00;25.28
67942;SHT31;54731;42.600;23.476;2023-08-01T15:02:14;38.98;24.27
67942;SHT31;54731;42.600;23.476;2023-08-01T15:04:40;39.16;24.32
67942;SHT31;54731;42.600;23.476;2023-08-01T15:07:05;38.98;23.79
67942;SHT31;54731;42.600;23.476;2023-08-01T15:09:31;38.95;24.89
67942;SHT31;54731;42.600;23.476;2023-08-01T15:11:56;39.12;23.65
67942;SHT31;54731;42.600;23.476;2023-08-01T15:14:21;39.22;24.13
67942;SHT31;54731;42.600;23.476;2023-08-01T15:16:46;39.38;24.98
67942;SHT31;54731;42.600;23.476;2023-08-01T15:19:12;39.02;23.40